sensor_id;sensor_type;location;lat;lon;timestamp;P1;durP1;ratioP1;P2;durP2;ratioP2
8113;SDS011;4099;52.684;9.918;2023-06-14T00:04:33;3.50;;;3.20;;
8113;SDS011;4099;52.684;9.918;2023-06-14T00:09:36;7.33;;;3.60;;
8113;SDS011;4099;52.684;9.918;2023-06-14T00:14:39;4.40;;;3.00;;
8113;SDS011;4099;52.684;9.918;2023-06-14T00:19:41;3.90;;;2.80;;
8113;SDS011;4099;52.684;9.918;2023-06-14T00:24:42;4.70;;;3.23;;
8113;SDS011;4099;52.684;9.918;2023-06-14T00:29:45;4.50;;;3.50;;
8113;SDS011;4099;52.684;9.918;2023-06-14T00:34:48;3.23;;;2.93;;
8113;SDS011;4099;52.684;9.918;2023-06-14T00:39:50;3.93;;;3.30;;
8113;SDS011;4099;52.684;9.918;2023-06-14T00:44:54;4.10;;;3.57;;
8113;SDS011;4099;52.684;9.918;2023-06-14T00:49:56;3.77;;;3.43;;
8113;SDS011;4099;52.684;9.918;2023-06-14T00:54:59;3.50;;;3.10;;
8113;SDS011;4099;52.684;9.918;2023-06-14T01:00:05;3.33;;;3.03;;
8113;SDS011;4099;52.684;9.918;2023-06-14T01:05:09;3.60;;;3.30;;
8113;SDS011;4099;52.684;9.918;2023-06-14T01:10:34;4.50;;;3.47;;
8113;SDS011;4099;52.684;9.918;2023-06-14T01:15:43;5.10;;;3.27;;
8113;SDS011;4099;52.684;9.918;2023-06-14T01:20:46;3.67;;;3.37;;
8113;SDS011;4099;52.684;9.918;2023-06-14T01:25:51;4.80;;;3.20;;
8113;SDS011;4099;52.684;9.918;2023-06-14T01:30:53;3.40;;;3.10;;
8113;SDS011;4099;52.684;9.918;2023-06-14T01:35:55;4.53;;;3.60;;
8113;SDS011;4099;52.684;9.918;2023-06-14T01:40:59;3.93;;;3.53;;
8113;SDS011;4099;52.684;9.918;2023-06-14T01:46:02;4.57;;;3.23;;
8113;SDS011;4099;52.684;9.918;2023-06-14T01:51:05;4.57;;;3.40;;
8113;SDS011;4099;52.684;9.918;2023-06-14T01:56:08;5.57;;;3.10;;
8113;SDS011;4099;52.684;9.918;2023-06-14T02:01:10;4.10;;;3.40;;
8113;SDS011;4099;52.684;9.918;2023-06-14T02:06:12;4.20;;;3.50;;
8113;SDS011;4099;52.684;9.918;2023-06-14T02:11:17;3.17;;;2.83;;
8113;SDS011;4099;52.684;9.918;2023-06-14T02:16:18;3.50;;;3.20;;
8113;SDS011;4099;52.684;9.918;2023-06-14T02:21:21;4.43;;;3.60;;
8113;SDS011;4099;52.684;9.918;2023-06-14T02:26:24;3.57;;;3.27;;
8113;SDS011;4099;52.684;9.918;2023-06-14T02:31:29;5.73;;;3.23;;
8113;SDS011;4099;52.684;9.918;2023-06-14T02:36:30;4.00;;;3.60;;
8113;SDS011;4099;52.684;9.918;2023-06-14T02:41:35;4.60;;;3.50;;
8113;SDS011;4099;52.684;9.918;2023-06-14T02:46:38;4.47;;;3.17;;
8113;SDS011;4099;52.684;9.918;2023-06-14T02:51:40;3.90;;;3.50;;
8113;SDS011;4099;52.684;9.918;2023-06-14T02:56:43;5.00;;;3.43;;
8113;SDS011;4099;52.684;9.918;2023-06-14T03:01:45;4.20;;;3.80;;
8113;SDS011;4099;52.684;9.918;2023-06-14T03:06:49;3.90;;;3.27;;
8113;SDS011;4099;52.684;9.918;2023-06-14T03:11:55;3.50;;;3.20;;
8113;SDS011;4099;52.684;9.918;2023-06-14T03:16:56;4.40;;;3.30;;
8113;SDS011;4099;52.684;9.918;2023-06-14T03:21:59;4.23;;;3.70;;
8113;SDS011;4099;52.684;9.918;2023-06-14T03:27:06;4.20;;;3.40;;
8113;SDS011;4099;52.684;9.918;2023-06-14T03:32:11;4.03;;;3.50;;
8113;SDS011;4099;52.684;9.918;2023-06-14T03:37:16;7.50;;;3.80;;
8113;SDS011;4099;52.684;9.918;2023-06-14T03:42:22;4.33;;;3.90;;
8113;SDS011;4099;52.684;9.918;2023-06-14T03:47:24;4.07;;;3.67;;
8113;SDS011;4099;52.684;9.918;2023-06-14T03:52:30;4.33;;;3.63;;
8113;SDS011;4099;52.684;9.918;2023-06-14T03:57:34;4.13;;;3.60;;
8113;SDS011;4099;52.684;9.918;2023-06-14T04:02:37;4.17;;;3.63;;
8113;SDS011;4099;52.684;9.918;2023-06-14T04:07:40;4.77;;;3.70;;
8113;SDS011;4099;52.684;9.918;2023-06-14T04:12:46;5.10;;;3.97;;
8113;SDS011;4099;52.684;9.918;2023-06-14T04:17:48;5.03;;;4.03;;
8113;SDS011;4099;52.684;9.918;2023-06-14T04:22:50;4.33;;;3.87;;
8113;SDS011;4099;52.684;9.918;2023-06-14T04:27:55;4.33;;;3.27;;
8113;SDS011;4099;52.684;9.918;2023-06-14T04:32:58;5.67;;;3.93;;
8113;SDS011;4099;52.684;9.918;2023-06-14T04:38:00;5.57;;;3.90;;
8113;SDS011;4099;52.684;9.918;2023-06-14T04:43:06;4.57;;;3.87;;
8113;SDS011;4099;52.684;9.918;2023-06-14T04:48:09;4.13;;;3.60;;
8113;SDS011;4099;52.684;9.918;2023-06-14T04:53:11;4.13;;;3.60;;
8113;SDS011;4099;52.684;9.918;2023-06-14T04:58:15;4.43;;;3.67;;
8113;SDS011;4099;52.684;9.918;2023-06-14T05:03:17;6.07;;;3.83;;
8113;SDS011;4099;52.684;9.918;2023-06-14T05:08:21;4.17;;;3.60;;
8113;SDS011;4099;52.684;9.918;2023-06-14T05:13:26;6.60;;;3.80;;
8113;SDS011;4099;52.684;9.918;2023-06-14T05:18:28;4.10;;;3.70;;
8113;SDS011;4099;52.684;9.918;2023-06-14T05:23:29;3.93;;;3.63;;
8113;SDS011;4099;52.684;9.918;2023-06-14T05:28:32;5.50;;;3.80;;
8113;SDS011;4099;52.684;9.918;2023-06-14T05:33:34;3.93;;;3.63;;
8113;SDS011;4099;52.684;9.918;2023-06-14T05:38:36;5.17;;;4.23;;
8113;SDS011;4099;52.684;9.918;2023-06-14T05:43:39;3.90;;;3.60;;
8113;SDS011;4099;52.684;9.918;2023-06-14T05:48:41;4.00;;;3.60;;
8113;SDS011;4099;52.684;9.918;2023-06-14T05:53:42;4.20;;;3.47;;
8113;SDS011;4099;52.684;9.918;2023-06-14T05:58:46;3.90;;;3.20;;
8113;SDS011;4099;52.684;9.918;2023-06-14T06:03:48;3.53;;;3.10;;
8113;SDS011;4099;52.684;9.918;2023-06-14T06:08:50;3.60;;;3.30;;
8113;SDS011;4099;52.684;9.918;2023-06-14T06:13:53;2.70;;;2.50;;
8113;SDS011;4099;52.684;9.918;2023-06-14T06:18:55;2.77;;;2.50;;
8113;SDS011;4099;52.684;9.918;2023-06-14T06:23:56;3.00;;;2.70;;
8113;SDS011;4099;52.684;9.918;2023-06-14T06:28:59;2.77;;;2.57;;
8113;SDS011;4099;52.684;9.918;2023-06-14T06:34:01;5.13;;;2.80;;
8113;SDS011;4099;52.684;9.918;2023-06-14T06:39:03;2.60;;;2.40;;
8113;SDS011;4099;52.684;9.918;2023-06-14T06:44:11;3.83;;;2.67;;
8113;SDS011;4099;52.684;9.918;2023-06-14T06:49:13;2.77;;;2.40;;
8113;SDS011;4099;52.684;9.918;2023-06-14T06:54:15;4.17;;;2.47;;
8113;SDS011;4099;52.684;9.918;2023-06-14T06:59:18;2.80;;;2.60;;
8113;SDS011;4099;52.684;9.918;2023-06-14T07:04:20;2.60;;;2.40;;
8113;SDS011;4099;52.684;9.918;2023-06-14T07:09:21;2.40;;;2.20;;
8113;SDS011;4099;52.684;9.918;2023-06-14T07:14:26;2.67;;;2.47;;
8113;SDS011;4099;52.684;9.918;2023-06-14T07:19:27;2.57;;;2.17;;
8113;SDS011;4099;52.684;9.918;2023-06-14T07:24:30;2.30;;;2.20;;
8113;SDS011;4099;52.684;9.918;2023-06-14T07:29:35;2.43;;;2.10;;
8113;SDS011;4099;52.684;9.918;2023-06-14T07:34:37;3.00;;;2.30;;
8113;SDS011;4099;52.684;9.918;2023-06-14T07:39:39;2.57;;;2.37;;
8113;SDS011;4099;52.684;9.918;2023-06-14T07:44:42;2.60;;;2.40;;
8113;SDS011;4099;52.684;9.918;2023-06-14T07:49:45;2.40;;;2.20;;
8113;SDS011;4099;52.684;9.918;2023-06-14T07:54:46;3.20;;;2.57;;
8113;SDS011;4099;52.684;9.918;2023-06-14T07:59:49;2.37;;;2.17;;
8113;SDS011;4099;52.684;9.918;2023-06-14T08:04:51;2.83;;;2.30;;
8113;SDS011;4099;52.684;9.918;2023-06-14T08:09:54;2.60;;;2.40;;
8113;SDS011;4099;52.684;9.918;2023-06-14T08:14:57;2.47;;;2.27;;
8113;SDS011;4099;52.684;9.918;2023-06-14T08:20:00;3.03;;;2.47;;
8113;SDS011;4099;52.684;9.918;2023-06-14T08:25:01;2.53;;;2.40;;
8113;SDS011;4099;52.684;9.918;2023-06-14T08:30:06;2.60;;;2.40;;
8113;SDS011;4099;52.684;9.918;2023-06-14T08:35:08;2.70;;;2.50;;
8113;SDS011;4099;52.684;9.918;2023-06-14T08:40:13;3.00;;;2.80;;
8113;SDS011;4099;52.684;9.918;2023-06-14T08:45:22;3.20;;;2.77;;
8113;SDS011;4099;52.684;9.918;2023-06-14T08:50:25;2.80;;;2.60;;
8113;SDS011;4099;52.684;9.918;2023-06-14T08:55:30;3.10;;;2.87;;
8113;SDS011;4099;52.684;9.918;2023-06-14T09:00:34;2.93;;;2.67;;
8113;SDS011;4099;52.684;9.918;2023-06-14T09:05:37;3.50;;;2.90;;
8113;SDS011;4099;52.684;9.918;2023-06-14T09:10:40;3.40;;;3.10;;
8113;SDS011;4099;52.684;9.918;2023-06-14T09:15:43;3.25;;;2.95;;
8113;SDS011;4099;52.684;9.918;2023-06-14T09:20:45;3.20;;;2.90;;
8113;SDS011;4099;52.684;9.918;2023-06-14T09:25:47;3.60;;;3.30;;
8113;SDS011;4099;52.684;9.918;2023-06-14T09:30:50;4.35;;;3.25;;
8113;SDS011;4099;52.684;9.918;2023-06-14T09:35:52;3.22;;;2.92;;
8113;SDS011;4099;52.684;9.918;2023-06-14T09:40:55;3.00;;;2.80;;
8113;SDS011;4099;52.684;9.918;2023-06-14T09:46:00;3.75;;;3.45;;
8113;SDS011;4099;52.684;9.918;2023-06-14T09:51:04;3.58;;;3.17;;
8113;SDS011;4099;52.684;9.918;2023-06-14T09:56:07;3.50;;;3.20;;
8113;SDS011;4099;52.684;9.918;2023-06-14T10:01:10;4.18;;;3.70;;
8113;SDS011;4099;52.684;9.918;2023-06-14T10:06:13;3.45;;;3.15;;
8113;SDS011;4099;52.684;9.918;2023-06-14T10:11:16;3.80;;;3.50;;
8113;SDS011;4099;52.684;9.918;2023-06-14T10:16:23;4.00;;;3.60;;
8113;SDS011;4099;52.684;9.918;2023-06-14T10:21:32;4.03;;;3.60;;
8113;SDS011;4099;52.684;9.918;2023-06-14T10:26:49;3.60;;;3.28;;
8113;SDS011;4099;52.684;9.918;2023-06-14T10:31:56;3.95;;;3.60;;
8113;SDS011;4099;52.684;9.918;2023-06-14T10:37:03;3.90;;;3.60;;
8113;SDS011;4099;52.684;9.918;2023-06-14T10:42:06;5.20;;;3.90;;
8113;SDS011;4099;52.684;9.918;2023-06-14T10:47:23;3.95;;;3.55;;
8113;SDS011;4099;52.684;9.918;2023-06-14T10:52:27;4.15;;;3.67;;
8113;SDS011;4099;52.684;9.918;2023-06-14T10:57:29;5.07;;;3.78;;
8113;SDS011;4099;52.684;9.918;2023-06-14T11:02:44;5.35;;;3.80;;
8113;SDS011;4099;52.684;9.918;2023-06-14T11:07:58;4.22;;;3.88;;
8113;SDS011;4099;52.684;9.918;2023-06-14T11:13:28;4.35;;;3.45;;
8113;SDS011;4099;52.684;9.918;2023-06-14T11:18:31;5.60;;;3.40;;
8113;SDS011;4099;52.684;9.918;2023-06-14T11:23:33;4.40;;;3.50;;
8113;SDS011;4099;52.684;9.918;2023-06-14T11:28:36;5.32;;;3.67;;
8113;SDS011;4099;52.684;9.918;2023-06-14T11:33:39;4.10;;;3.70;;
8113;SDS011;4099;52.684;9.918;2023-06-14T11:38:41;4.10;;;3.70;;
8113;SDS011;4099;52.684;9.918;2023-06-14T11:43:44;4.13;;;3.67;;
8113;SDS011;4099;52.684;9.918;2023-06-14T11:48:51;5.18;;;3.60;;
8113;SDS011;4099;52.684;9.918;2023-06-14T11:53:54;5.65;;;3.42;;
8113;SDS011;4099;52.684;9.918;2023-06-14T11:58:58;5.07;;;3.67;;
8113;SDS011;4099;52.684;9.918;2023-06-14T12:04:03;4.35;;;3.95;;
8113;SDS011;4099;52.684;9.918;2023-06-14T12:09:06;4.13;;;3.60;;
8113;SDS011;4099;52.684;9.918;2023-06-14T12:14:12;6.07;;;3.53;;
8113;SDS011;4099;52.684;9.918;2023-06-14T12:19:16;4.40;;;3.50;;
8113;SDS011;4099;52.684;9.918;2023-06-14T12:24:19;3.90;;;3.60;;
8113;SDS011;4099;52.684;9.918;2023-06-14T12:29:21;4.05;;;3.67;;
8113;SDS011;4099;52.684;9.918;2023-06-14T12:34:25;4.78;;;3.70;;
8113;SDS011;4099;52.684;9.918;2023-06-14T12:39:28;3.40;;;3.20;;
8113;SDS011;4099;52.684;9.918;2023-06-14T12:44:31;3.95;;;3.40;;
8113;SDS011;4099;52.684;9.918;2023-06-14T12:49:38;3.83;;;3.53;;
8113;SDS011;4099;52.684;9.918;2023-06-14T12:54:43;3.90;;;3.60;;
8113;SDS011;4099;52.684;9.918;2023-06-14T12:59:47;3.78;;;3.47;;
8113;SDS011;4099;52.684;9.918;2023-06-14T13:04:51;5.85;;;3.88;;
8113;SDS011;4099;52.684;9.918;2023-06-14T13:09:53;3.90;;;3.50;;
8113;SDS011;4099;52.684;9.918;2023-06-14T13:14:57;3.85;;;3.55;;
8113;SDS011;4099;52.684;9.918;2023-06-14T13:20:02;4.80;;;3.88;;
8113;SDS011;4099;52.684;9.918;2023-06-14T13:25:06;6.57;;;4.00;;
8113;SDS011;4099;52.684;9.918;2023-06-14T13:30:10;3.95;;;3.55;;
8113;SDS011;4099;52.684;9.918;2023-06-14T13:35:19;4.90;;;4.07;;
8113;SDS011;4099;52.684;9.918;2023-06-14T13:40:22;4.38;;;3.97;;
8113;SDS011;4099;52.684;9.918;2023-06-14T13:45:27;3.83;;;3.53;;
8113;SDS011;4099;52.684;9.918;2023-06-14T13:50:32;3.70;;;3.40;;
8113;SDS011;4099;52.684;9.918;2023-06-14T13:55:36;6.60;;;4.07;;
8113;SDS011;4099;52.684;9.918;2023-06-14T14:00:38;4.95;;;3.63;;
8113;SDS011;4099;52.684;9.918;2023-06-14T14:05:42;4.05;;;3.65;;
8113;SDS011;4099;52.684;9.918;2023-06-14T14:10:44;5.95;;;4.25;;
8113;SDS011;4099;52.684;9.918;2023-06-14T14:15:47;5.45;;;3.63;;
8113;SDS011;4099;52.684;9.918;2023-06-14T14:20:52;8.75;;;4.13;;
8113;SDS011;4099;52.684;9.918;2023-06-14T14:25:55;3.67;;;3.38;;
8113;SDS011;4099;52.684;9.918;2023-06-14T14:30:57;4.65;;;3.83;;
8113;SDS011;4099;52.684;9.918;2023-06-14T14:36:01;4.10;;;3.80;;
8113;SDS011;4099;52.684;9.918;2023-06-14T14:41:04;4.20;;;3.80;;
8113;SDS011;4099;52.684;9.918;2023-06-14T14:46:06;4.78;;;3.70;;
8113;SDS011;4099;52.684;9.918;2023-06-14T14:51:09;6.70;;;3.80;;
8113;SDS011;4099;52.684;9.918;2023-06-14T14:56:11;4.35;;;3.83;;
8113;SDS011;4099;52.684;9.918;2023-06-14T15:01:13;4.38;;;3.60;;
8113;SDS011;4099;52.684;9.918;2023-06-14T15:06:16;4.95;;;3.60;;
8113;SDS011;4099;52.684;9.918;2023-06-14T15:11:18;4.82;;;3.60;;
8113;SDS011;4099;52.684;9.918;2023-06-14T15:16:20;4.10;;;3.63;;
8113;SDS011;4099;52.684;9.918;2023-06-14T15:21:23;3.88;;;3.50;;
8113;SDS011;4099;52.684;9.918;2023-06-14T15:26:25;4.50;;;3.60;;
8113;SDS011;4099;52.684;9.918;2023-06-14T15:31:31;3.90;;;3.60;;
8113;SDS011;4099;52.684;9.918;2023-06-14T15:36:34;7.05;;;3.75;;
8113;SDS011;4099;52.684;9.918;2023-06-14T15:41:36;4.32;;;3.92;;
8113;SDS011;4099;52.684;9.918;2023-06-14T15:46:37;3.92;;;3.55;;
8113;SDS011;4099;52.684;9.918;2023-06-14T15:51:41;3.55;;;3.20;;
8113;SDS011;4099;52.684;9.918;2023-06-14T15:56:42;3.63;;;3.15;;
8113;SDS011;4099;52.684;9.918;2023-06-14T16:01:44;6.78;;;3.58;;
8113;SDS011;4099;52.684;9.918;2023-06-14T16:06:47;3.78;;;3.38;;
8113;SDS011;4099;52.684;9.918;2023-06-14T16:11:49;5.90;;;3.70;;
8113;SDS011;4099;52.684;9.918;2023-06-14T16:16:51;3.78;;;3.42;;
8113;SDS011;4099;52.684;9.918;2023-06-14T16:21:54;5.45;;;3.55;;
8113;SDS011;4099;52.684;9.918;2023-06-14T16:26:55;3.97;;;3.63;;
8113;SDS011;4099;52.684;9.918;2023-06-14T16:31:57;4.18;;;3.40;;
8113;SDS011;4099;52.684;9.918;2023-06-14T16:37:00;3.53;;;3.20;;
8113;SDS011;4099;52.684;9.918;2023-06-14T16:42:02;5.65;;;3.42;;
8113;SDS011;4099;52.684;9.918;2023-06-14T16:47:05;3.60;;;3.30;;
8113;SDS011;4099;52.684;9.918;2023-06-14T16:52:09;4.97;;;3.47;;
8113;SDS011;4099;52.684;9.918;2023-06-14T16:57:11;3.28;;;3.08;;
8113;SDS011;4099;52.684;9.918;2023-06-14T17:02:13;4.32;;;3.30;;
8113;SDS011;4099;52.684;9.918;2023-06-14T17:07:16;3.60;;;3.30;;
8113;SDS011;4099;52.684;9.918;2023-06-14T17:12:18;3.78;;;3.10;;
8113;SDS011;4099;52.684;9.918;2023-06-14T17:17:19;4.30;;;3.30;;
8113;SDS011;4099;52.684;9.918;2023-06-14T17:22:24;3.38;;;3.08;;
8113;SDS011;4099;52.684;9.918;2023-06-14T17:27:25;4.25;;;3.55;;
8113;SDS011;4099;52.684;9.918;2023-06-14T17:32:27;3.42;;;3.10;;
8113;SDS011;4099;52.684;9.918;2023-06-14T17:37:30;3.80;;;3.47;;
8113;SDS011;4099;52.684;9.918;2023-06-14T17:42:32;3.70;;;3.40;;
8113;SDS011;4099;52.684;9.918;2023-06-14T17:47:34;4.15;;;3.60;;
8113;SDS011;4099;52.684;9.918;2023-06-14T17:52:37;5.43;;;3.28;;
8113;SDS011;4099;52.684;9.918;2023-06-14T17:57:39;4.07;;;3.67;;
8113;SDS011;4099;52.684;9.918;2023-06-14T18:02:40;4.47;;;3.50;;
8113;SDS011;4099;52.684;9.918;2023-06-14T18:07:45;4.28;;;3.88;;
8113;SDS011;4099;52.684;9.918;2023-06-14T18:12:47;4.13;;;3.50;;
8113;SDS011;4099;52.684;9.918;2023-06-14T18:17:49;6.10;;;3.88;;
8113;SDS011;4099;52.684;9.918;2023-06-14T18:22:52;3.80;;;3.50;;
8113;SDS011;4099;52.684;9.918;2023-06-14T18:27:54;5.60;;;3.50;;
8113;SDS011;4099;52.684;9.918;2023-06-14T18:32:56;6.50;;;4.23;;
8113;SDS011;4099;52.684;9.918;2023-06-14T18:37:59;5.17;;;3.50;;
8113;SDS011;4099;52.684;9.918;2023-06-14T18:43:01;3.80;;;3.30;;
8113;SDS011;4099;52.684;9.918;2023-06-14T18:48:04;5.07;;;3.37;;
8113;SDS011;4099;52.684;9.918;2023-06-14T18:53:07;3.70;;;3.10;;
8113;SDS011;4099;52.684;9.918;2023-06-14T18:58:09;3.83;;;3.30;;
8113;SDS011;4099;52.684;9.918;2023-06-14T19:03:11;3.50;;;3.20;;
8113;SDS011;4099;52.684;9.918;2023-06-14T19:08:14;3.77;;;3.10;;
8113;SDS011;4099;52.684;9.918;2023-06-14T19:13:16;3.70;;;2.90;;
8113;SDS011;4099;52.684;9.918;2023-06-14T19:18:17;3.33;;;3.03;;
8113;SDS011;4099;52.684;9.918;2023-06-14T19:23:21;3.10;;;2.90;;
8113;SDS011;4099;52.684;9.918;2023-06-14T19:28:24;3.83;;;3.00;;
8113;SDS011;4099;52.684;9.918;2023-06-14T19:33:26;3.33;;;3.03;;
8113;SDS011;4099;52.684;9.918;2023-06-14T19:38:29;3.47;;;3.00;;
8113;SDS011;4099;52.684;9.918;2023-06-14T19:43:32;4.50;;;3.80;;
8113;SDS011;4099;52.684;9.918;2023-06-14T19:48:34;3.77;;;2.83;;
8113;SDS011;4099;52.684;9.918;2023-06-14T19:53:37;5.07;;;3.50;;
8113;SDS011;4099;52.684;9.918;2023-06-14T19:58:39;3.63;;;3.13;;
8113;SDS011;4099;52.684;9.918;2023-06-14T20:03:41;4.00;;;3.00;;
8113;SDS011;4099;52.684;9.918;2023-06-14T20:08:45;5.03;;;3.13;;
8113;SDS011;4099;52.684;9.918;2023-06-14T20:13:47;4.33;;;3.10;;
8113;SDS011;4099;52.684;9.918;2023-06-14T20:18:49;3.07;;;2.77;;
8113;SDS011;4099;52.684;9.918;2023-06-14T20:23:52;4.00;;;3.40;;
8113;SDS011;4099;52.684;9.918;2023-06-14T20:28:54;4.73;;;3.10;;
8113;SDS011;4099;52.684;9.918;2023-06-14T20:33:56;4.67;;;3.07;;
8113;SDS011;4099;52.684;9.918;2023-06-14T20:38:59;5.13;;;2.70;;
8113;SDS011;4099;52.684;9.918;2023-06-14T20:44:02;3.37;;;3.00;;
8113;SDS011;4099;52.684;9.918;2023-06-14T20:49:03;4.47;;;3.20;;
8113;SDS011;4099;52.684;9.918;2023-06-14T20:54:09;3.17;;;2.87;;
8113;SDS011;4099;52.684;9.918;2023-06-14T20:59:11;3.37;;;3.10;;
8113;SDS011;4099;52.684;9.918;2023-06-14T21:04:12;3.40;;;3.10;;
8113;SDS011;4099;52.684;9.918;2023-06-14T21:09:16;2.97;;;2.77;;
8113;SDS011;4099;52.684;9.918;2023-06-14T21:14:18;4.30;;;3.10;;
8113;SDS011;4099;52.684;9.918;2023-06-14T21:19:19;4.07;;;3.00;;
8113;SDS011;4099;52.684;9.918;2023-06-14T21:24:22;3.27;;;2.97;;
8113;SDS011;4099;52.684;9.918;2023-06-14T21:29:24;3.23;;;2.73;;
8113;SDS011;4099;52.684;9.918;2023-06-14T21:34:26;3.00;;;2.80;;
8113;SDS011;4099;52.684;9.918;2023-06-14T21:39:29;4.90;;;3.07;;
8113;SDS011;4099;52.684;9.918;2023-06-14T21:44:31;4.33;;;3.20;;
8113;SDS011;4099;52.684;9.918;2023-06-14T21:49:33;4.90;;;2.90;;
8113;SDS011;4099;52.684;9.918;2023-06-14T21:54:36;4.77;;;2.80;;
8113;SDS011;4099;52.684;9.918;2023-06-14T21:59:38;3.87;;;3.10;;
8113;SDS011;4099;52.684;9.918;2023-06-14T22:04:41;3.60;;;3.30;;
8113;SDS011;4099;52.684;9.918;2023-06-14T22:09:44;5.70;;;3.17;;
8113;SDS011;4099;52.684;9.918;2023-06-14T22:14:46;3.70;;;3.30;;
8113;SDS011;4099;52.684;9.918;2023-06-14T22:19:48;3.60;;;3.27;;
8113;SDS011;4099;52.684;9.918;2023-06-14T22:24:53;3.30;;;3.00;;
8113;SDS011;4099;52.684;9.918;2023-06-14T22:29:55;4.03;;;3.23;;
8113;SDS011;4099;52.684;9.918;2023-06-14T22:34:58;3.97;;;3.50;;
8113;SDS011;4099;52.684;9.918;2023-06-14T22:40:04;5.27;;;3.30;;
8113;SDS011;4099;52.684;9.918;2023-06-14T22:45:09;3.30;;;3.00;;
8113;SDS011;4099;52.684;9.918;2023-06-14T22:50:12;4.40;;;3.20;;
8113;SDS011;4099;52.684;9.918;2023-06-14T22:55:15;3.73;;;3.40;;
8113;SDS011;4099;52.684;9.918;2023-06-14T23:00:17;4.47;;;3.43;;
8113;SDS011;4099;52.684;9.918;2023-06-14T23:05:19;3.60;;;3.30;;
8113;SDS011;4099;52.684;9.918;2023-06-14T23:10:22;5.00;;;3.40;;
8113;SDS011;4099;52.684;9.918;2023-06-14T23:15:24;5.70;;;3.53;;
8113;SDS011;4099;52.684;9.918;2023-06-14T23:20:28;4.70;;;3.33;;
8113;SDS011;4099;52.684;9.918;2023-06-14T23:25:33;4.03;;;3.63;;
8113;SDS011;4099;52.684;9.918;2023-06-14T23:30:35;4.17;;;3.70;;
8113;SDS011;4099;52.684;9.918;2023-06-14T23:35:37;7.57;;;3.97;;
8113;SDS011;4099;52.684;9.918;2023-06-14T23:40:42;5.13;;;3.60;;
8113;SDS011;4099;52.684;9.918;2023-06-14T23:45:46;5.57;;;3.97;;
8113;SDS011;4099;52.684;9.918;2023-06-14T23:50:50;3.87;;;3.50;;
8113;SDS011;4099;52.684;9.918;2023-06-14T23:55:54;4.43;;;3.87;;
